Terminal Aerodrome Forecast
Issued by NWS Wilmington, NC

Home | Current Version | Previous Version | Text Only | Print | Product List | Glossary On
Versions: 1 2 3 4 5 6 7 8 9 10 11 12 13 14 15
000
FTUS42 KILM 071120
TAFFLO
TAF
KFLO 071120Z 0712/0812 20005KT P6SM SCT250
     FM071300 23006KT P6SM FEW030
     FM071900 21008KT P6SM VCTS BKN030CB
     FM080000 18008KT P6SM BKN250=

USA.gov is the U.S. government's official web portal to all federal, state and local government web resources and services.